createdAt,value
2019-04-07T00:04:16.929Z,59.75
2019-04-07T00:09:16.571Z,59.67
2019-04-07T00:18:15.226Z,61.01
2019-04-07T00:22:20.971Z,61.27
2019-04-07T00:26:26.814Z,62.58
2019-04-07T00:30:32.520Z,60.55
2019-04-07T00:34:38.222Z,60.43
2019-04-07T00:38:43.928Z,60.49
2019-04-07T00:42:50.166Z,61.54
2019-04-07T00:46:56.061Z,60.83
2019-04-07T00:51:01.752Z,61.53
2019-04-07T00:55:08.861Z,62.32
2019-04-07T00:59:14.601Z,65.09
2019-04-07T01:03:20.293Z,62.58
2019-04-07T01:07:26.127Z,64.86
2019-04-07T01:11:32.372Z,61.45
2019-04-07T01:15:38.393Z,62.62
2019-04-07T01:19:44.288Z,63.69
2019-04-07T01:23:50.215Z,62.56
2019-04-07T01:27:56.577Z,62.74
2019-04-07T01:32:02.398Z,62.57
2019-04-07T01:36:08.266Z,63.19
2019-04-07T01:40:14.499Z,63.35
2019-04-07T01:44:36.721Z,63.52
2019-04-07T01:48:44.756Z,63.40
2019-04-07T01:53:01.088Z,61.66
2019-04-07T01:57:12.731Z,60.87
2019-04-07T02:01:20.810Z,59.70
2019-04-07T02:05:32.365Z,60.13
2019-04-07T02:09:55.712Z,61.56
2019-04-07T02:14:09.029Z,59.05
2019-04-07T02:18:18.899Z,59.43
2019-04-07T02:22:25.588Z,57.84
2019-04-07T02:26:50.698Z,59.17
2019-04-07T02:31:00.873Z,61.76
2019-04-07T02:35:16.566Z,61.96
2019-04-07T02:39:24.696Z,62.74
2019-04-07T02:43:48.892Z,63.02
2019-04-07T02:47:56.475Z,65.06
2019-04-07T02:52:18.490Z,62.58
2019-04-07T02:56:34.509Z,62.10
2019-04-07T03:00:48.710Z,63.69
2019-04-07T03:05:06.306Z,62.62
2019-04-07T03:09:31.171Z,63.56
2019-04-07T03:13:54.280Z,63.99
2019-04-07T03:18:04.907Z,63.89
2019-04-07T03:22:29.253Z,64.03
2019-04-07T03:26:45.453Z,64.17
2019-04-07T03:30:58.435Z,64.34
2019-04-07T03:35:23.486Z,67.74
2019-04-07T03:39:39.388Z,62.97
2019-04-07T03:43:46.720Z,63.13
2019-04-07T03:47:56.836Z,62.04
2019-04-07T03:52:04.660Z,62.13
2019-04-07T03:56:14.508Z,63.23
2019-04-07T04:01:08.485Z,63.42
2019-04-07T04:05:18.919Z,63.98
2019-04-07T04:09:40.813Z,61.61
2019-04-07T04:13:51.133Z,63.73
2019-04-07T04:17:57.354Z,62.79
2019-04-07T04:22:03.995Z,63.44
2019-04-07T04:26:09.734Z,63.87
2019-04-07T04:30:15.492Z,64.93
2019-04-07T04:34:21.167Z,63.75
2019-04-07T04:38:27.319Z,62.99
2019-04-07T04:42:33.939Z,67.34
2019-04-07T04:46:40.907Z,65.30
2019-04-07T04:50:47.199Z,63.08
2019-04-07T04:54:53.681Z,62.03
2019-04-07T04:58:59.808Z,60.50
2019-04-07T05:03:05.629Z,62.17
2019-04-07T05:07:11.376Z,61.46
2019-04-07T05:11:17.507Z,62.04
2019-04-07T05:15:23.243Z,63.24
2019-04-07T05:19:28.939Z,60.82
2019-04-07T05:23:34.849Z,60.87
2019-04-07T05:27:41.523Z,62.00
2019-04-07T05:31:47.454Z,63.06
2019-04-07T05:35:53.329Z,60.09
2019-04-07T05:39:59.143Z,61.58
2019-04-07T05:44:05.538Z,60.45
2019-04-07T05:48:11.944Z,58.82
2019-04-07T05:52:18.109Z,61.61
2019-04-07T05:56:28.143Z,60.47
2019-04-07T06:00:31.221Z,62.69
2019-04-07T06:04:36.919Z,59.55
2019-04-07T06:08:42.655Z,59.50
2019-04-07T06:12:49.006Z,58.83
2019-04-07T06:16:55.711Z,58.27
2019-04-07T06:21:01.673Z,60.38
2019-04-07T06:25:09.757Z,57.66
2019-04-07T06:29:16.100Z,56.35
2019-04-07T06:33:22.848Z,56.06
2019-04-07T06:37:29.463Z,55.49
2019-04-07T06:41:35.230Z,58.22
2019-04-07T06:45:45.466Z,56.49
2019-04-07T06:50:09.592Z,56.34
2019-04-07T06:54:28.731Z,54.58
2019-04-07T06:58:41.861Z,55.52
2019-04-07T07:03:04.394Z,54.71
2019-04-07T07:07:13.039Z,54.26
2019-04-07T07:11:34.657Z,53.17
2019-04-07T07:15:42.858Z,52.86
2019-04-07T07:19:57.408Z,53.69
2019-04-07T07:24:03.317Z,53.70
2019-04-07T07:28:12.456Z,49.98
2019-04-07T07:32:18.015Z,47.86
2019-04-07T07:36:23.998Z,46.59
2019-04-07T07:40:29.976Z,46.22
2019-04-07T07:44:37.547Z,46.14
2019-04-07T07:48:43.148Z,47.53
2019-04-07T07:52:51.307Z,48.12
2019-04-07T07:56:57.062Z,48.92
2019-04-07T08:01:03.315Z,48.60
2019-04-07T08:05:09.341Z,49.00
2019-04-07T08:09:18.680Z,47.77
2019-04-07T08:13:22.539Z,44.24
2019-04-07T08:17:31.630Z,43.63
2019-04-07T08:21:35.690Z,41.12
2019-04-07T08:25:41.545Z,40.32
2019-04-07T08:29:47.451Z,37.51
2019-04-07T08:33:53.755Z,38.00
2019-04-07T08:38:00.963Z,39.73
2019-04-07T08:42:10.729Z,39.00
2019-04-07T08:46:14.194Z,37.04
2019-04-07T08:50:21.521Z,36.69
2019-04-07T08:54:27.605Z,37.93
2019-04-07T08:58:37.923Z,37.89
2019-04-07T09:02:40.743Z,37.92
2019-04-07T09:06:46.462Z,38.10
2019-04-07T09:10:53.882Z,38.22
2019-04-07T09:15:02.832Z,38.19
2019-04-07T09:19:15.599Z,35.70
2019-04-07T09:23:25.158Z,35.40
2019-04-07T09:27:28.255Z,35.14
2019-04-07T09:31:47.855Z,36.29
2019-04-07T09:36:07.966Z,39.32
2019-04-07T09:40:27.941Z,39.32
2019-04-07T09:44:50.741Z,38.55
2019-04-07T09:49:01.869Z,36.46
2019-04-07T09:53:19.539Z,36.62
2019-04-07T09:57:40.983Z,36.94
2019-04-07T10:01:57.043Z,36.45
2019-04-07T10:06:20.343Z,34.26
2019-04-07T10:10:31.609Z,31.46
2019-04-07T10:14:51.709Z,29.60
2019-04-07T10:18:59.280Z,27.42
2019-04-07T10:23:10.726Z,25.99
2019-04-07T10:27:20.663Z,25.23
2019-04-07T10:31:31.575Z,24.09
2019-04-07T10:35:55.208Z,23.74
2019-04-07T10:40:19.519Z,23.30
2019-04-07T10:44:21.334Z,22.76
2019-04-07T10:48:28.721Z,23.14
2019-04-07T10:52:36.142Z,21.87
2019-04-07T10:56:45.071Z,22.56
2019-04-07T11:01:14.512Z,22.30
2019-04-07T11:05:20.577Z,21.32
2019-04-07T11:09:28.395Z,20.57
2019-04-07T11:13:53.459Z,23.47
2019-04-07T11:17:59.268Z,21.49
2019-04-07T11:22:05.626Z,23.37
2019-04-07T11:26:22.012Z,20.64
2019-04-07T11:30:38.712Z,23.86
2019-04-07T11:34:46.668Z,23.31
2019-04-07T11:38:52.762Z,26.51
2019-04-07T11:42:59.037Z,22.65
2019-04-07T11:47:14.166Z,22.37
2019-04-07T11:51:27.967Z,24.44
2019-04-07T11:55:51.988Z,27.71
2019-04-07T12:00:18.389Z,26.33
2019-04-07T12:04:32.690Z,25.69
2019-04-07T12:08:44.585Z,22.82
2019-04-07T12:13:05.080Z,22.80
2019-04-07T12:17:13.801Z,22.50
2019-04-07T12:34:15.562Z,27.67
2019-04-07T12:39:18.927Z,25.91
2019-04-07T12:43:35.934Z,30.88
2019-04-07T12:48:36.070Z,27.41
2019-04-07T12:52:53.989Z,29.62
2019-04-07T12:57:18.838Z,29.07
2019-04-07T13:01:27.003Z,26.61
2019-04-07T13:06:22.271Z,27.53
2019-04-07T13:10:30.237Z,31.52
2019-04-07T13:15:35.466Z,29.74
2019-04-07T13:19:46.766Z,29.81
2019-04-07T13:24:31.805Z,30.70
2019-04-07T13:28:37.137Z,31.97
2019-04-07T13:33:23.750Z,32.56
2019-04-07T13:37:42.215Z,38.42
2019-04-07T13:42:19.660Z,32.86
2019-04-07T13:46:36.185Z,34.78
2019-04-07T13:51:19.909Z,33.46
2019-04-07T13:55:35.030Z,35.36
2019-04-07T14:00:29.408Z,36.98
2019-04-07T14:04:39.510Z,36.23
2019-04-07T14:09:35.422Z,39.13
2019-04-07T14:13:59.160Z,35.35
2019-04-07T14:18:21.368Z,34.36
2019-04-07T14:22:36.387Z,34.18
2019-04-07T14:27:29.757Z,35.19
2019-04-07T14:31:49.134Z,37.93
2019-04-07T14:36:25.011Z,37.52
2019-04-07T14:40:30.556Z,37.01
2019-04-07T14:45:26.411Z,35.84
2019-04-07T14:49:46.164Z,35.93
2019-04-07T14:54:19.674Z,36.79
2019-04-07T14:58:29.127Z,38.47
2019-04-07T15:03:17.043Z,35.37
2019-04-07T15:07:40.839Z,34.75
2019-04-07T15:11:48.720Z,37.26
2019-04-07T15:15:54.377Z,39.59
2019-04-07T15:20:00.094Z,38.03
2019-04-07T15:24:08.190Z,36.32
2019-04-07T15:28:15.986Z,38.29
2019-04-07T15:32:26.600Z,36.92
2019-04-07T15:36:29.983Z,38.89
2019-04-07T15:40:36.495Z,38.80
2019-04-07T15:44:42.748Z,36.25
2019-04-07T15:48:50.198Z,36.52
2019-04-07T15:52:56.390Z,39.16
2019-04-07T15:57:20.199Z,36.44
2019-04-07T16:01:24.965Z,40.51
2019-04-07T16:05:38.021Z,37.66
2019-04-07T16:09:47.870Z,41.24
2019-04-07T16:13:46.297Z,38.55
2019-04-07T16:17:52.290Z,35.71
2019-04-07T16:21:58.059Z,36.64
2019-04-07T16:26:03.794Z,36.90
2019-04-07T16:30:11.309Z,41.49
2019-04-07T16:57:45.072Z,38.67
2019-04-07T17:01:50.942Z,39.59
2019-04-07T17:05:59.346Z,38.40
2019-04-07T17:10:05.027Z,39.81
2019-04-07T17:14:11.697Z,38.67
2019-04-07T17:18:43.350Z,39.13
2019-04-07T17:22:49.449Z,38.42
2019-04-07T17:26:56.277Z,38.45
2019-04-07T17:36:31.046Z,40.36
2019-04-07T17:40:38.520Z,40.80
2019-04-07T17:44:48.318Z,41.35
2019-04-07T17:49:11.108Z,40.96
2019-04-07T17:53:36.733Z,43.17
2019-04-07T17:57:43.886Z,41.23
2019-04-07T18:01:54.417Z,40.33
2019-04-07T18:06:10.132Z,41.46
2019-04-07T18:10:26.389Z,41.09
2019-04-07T18:14:52.105Z,41.70
2019-04-07T18:19:05.463Z,40.47
2019-04-07T18:23:11.088Z,41.45
2019-04-07T18:27:36.304Z,41.05
2019-04-07T18:31:43.744Z,42.12
2019-04-07T18:35:57.019Z,40.66
2019-04-07T18:40:10.902Z,40.30
2019-04-07T18:44:18.409Z,46.20
2019-04-07T18:48:28.794Z,44.55
2019-04-07T18:52:33.950Z,45.92
2019-04-07T18:56:41.730Z,41.01
2019-04-07T19:01:07.373Z,43.56
2019-04-07T19:05:13.202Z,43.16
2019-04-07T19:09:23.934Z,45.01
2019-04-07T19:13:33.567Z,44.54
2019-04-07T19:17:41.018Z,44.49
2019-04-07T19:22:06.702Z,43.09
2019-04-07T19:26:18.461Z,44.20
2019-04-07T19:30:38.960Z,45.03
2019-04-07T19:35:03.310Z,43.96
2019-04-07T19:39:30.940Z,44.86
2019-04-07T19:43:44.669Z,45.10
2019-04-07T19:48:06.438Z,45.10
2019-04-07T19:52:12.695Z,45.51
2019-04-07T19:56:27.285Z,45.79
2019-04-07T20:00:54.278Z,46.88
2019-04-07T20:05:18.445Z,45.48
2019-04-07T20:09:39.471Z,46.25
2019-04-07T20:13:49.483Z,46.05
2019-04-07T20:17:58.374Z,47.00
2019-04-07T20:22:22.811Z,48.26
2019-04-07T20:26:28.417Z,48.43
2019-04-07T20:30:45.564Z,48.49
2019-04-07T20:34:50.747Z,49.54
2019-04-07T20:39:01.790Z,49.65
2019-04-07T20:43:23.150Z,50.06
2019-04-07T20:47:34.549Z,49.77
2019-04-07T20:51:40.966Z,50.36
2019-04-07T20:55:54.296Z,50.35
2019-04-07T21:00:03.581Z,51.19
2019-04-07T21:04:27.583Z,52.23
2019-04-07T21:08:38.768Z,52.60
2019-04-07T21:12:45.423Z,52.30
2019-04-07T21:16:55.334Z,53.18
2019-04-07T21:21:09.614Z,53.51
2019-04-07T21:25:24.245Z,54.66
2019-04-07T21:29:34.573Z,56.12
2019-04-07T21:33:44.360Z,55.43
2019-04-07T21:37:55.079Z,55.31
2019-04-07T21:42:03.013Z,55.04
2019-04-07T21:46:13.400Z,55.53
2019-04-07T21:50:26.553Z,58.21
2019-04-07T21:54:50.380Z,59.57
2019-04-07T21:58:59.199Z,61.43
2019-04-07T22:03:15.861Z,62.92
2019-04-07T22:07:27.651Z,61.88
2019-04-07T22:11:34.736Z,61.75
2019-04-07T22:15:45.923Z,61.08
2019-04-07T22:19:49.051Z,61.87
2019-04-07T22:23:54.912Z,61.79
2019-04-07T22:28:00.885Z,61.25
2019-04-07T22:32:07.498Z,62.02
2019-04-07T22:36:14.652Z,61.77
2019-04-07T22:40:22.564Z,62.06
2019-04-07T22:44:28.263Z,63.08
2019-04-07T22:48:34.933Z,61.93
2019-04-07T22:52:40.632Z,62.46
2019-04-07T22:56:46.700Z,62.27
2019-04-07T23:00:52.550Z,63.85
2019-04-07T23:05:00.850Z,62.19
2019-04-07T23:09:08.810Z,62.20
2019-04-07T23:13:15.416Z,62.67
2019-04-07T23:17:21.380Z,62.64
2019-04-07T23:21:27.927Z,62.81
2019-04-07T23:25:34.370Z,61.36
2019-04-07T23:29:40.023Z,62.02
2019-04-07T23:33:45.931Z,61.53
2019-04-07T23:37:51.569Z,60.52
2019-04-07T23:41:57.517Z,60.10
2019-04-07T23:46:05.140Z,59.80
2019-04-07T23:50:11.174Z,59.50
2019-04-07T23:54:18.293Z,58.93
2019-04-07T23:58:24.127Z,59.33
